Check out our new BloomSky Weather System.

Active alerts

Fort Bend, TX
  Details for Fort Bend, TX Special Weather Statement


Thunder radar  blitzortung!


Rain radar more information rain snow radar


Visit our other weather sites:

Template documentation
and downloads

And another site



Weather Underground History page Text

Daily Summary for October 15, 2017 Units:  English    Metric   Both
« Previous Day
Next Day »
Daily Weekly Monthly Yearly Custom
  High: Low: Average:
Temperature: TemperatureF °F 68.9 °F 75.6 °F
Dew Point: DewpointF °F 53.1 °F 68.9 °F
Humidity: Humidity % 53 % 81 %
Wind Speed: WindSpeedMPH mph 0.0 mph 3 mph
Wind Gust: WindSpeedGustMPH mph - -
Wind:- - WNW
Pressure: PressureIn in 29.98 in -
Precipitation: 0.00 in    
Historical Graphs
 
 
Tabular Data for October 15, 2017
Time Temperature Dew Point Pressure Wind Wind Speed Wind Gust Humidity Rainfall Rate (Hourly)
TemperatureF °F DewpointF °F PressureIn in Calm     Humidity % HourlyPrecipIn in
00:02 73.9 °F 71.8 °F 30.01 in Calm     93 % 0.00 in
00:07 73.8 °F 71.6 °F 30.01 in Calm     93 % 0.00 in
00:12 73.6 °F 71.8 °F 30.01 in Calm     94 % 0.00 in
00:17 73.6 °F 72.1 °F 30.01 in Calm     95 % 0.00 in
00:22 73.8 °F 72.0 °F 30.01 in Calm   1.0 mph 94 % 0.00 in
00:27 73.8 °F 72.0 °F 30.01 in Calm   1.0 mph 94 % 0.00 in
00:32 73.8 °F 72.0 °F 30.01 in Calm   1.0 mph 94 % 0.00 in
00:37 73.6 °F 71.8 °F 30.01 in Calm   1.0 mph 94 % 0.00 in
00:42 73.6 °F 71.8 °F 30.00 in Calm     94 % 0.00 in
00:46 73.4 °F 71.6 °F 30.00 in Calm     94 % 0.00 in
00:47 73.4 °F 71.6 °F 30.00 in Calm     94 % 0.00 in
00:52 73.2 °F 71.4 °F 30.00 in Calm     94 % 0.00 in
00:57 73.0 °F 71.2 °F 30.00 in Calm     94 % 0.00 in
01:02 72.9 °F 71.4 °F 30.00 in Calm     95 % 0.00 in
01:07 72.7 °F 71.2 °F 30.00 in Calm     95 % 0.00 in
01:11 72.5 °F 71.1 °F 30.00 in Calm     95 % 0.00 in
01:16 72.3 °F 70.9 °F 30.00 in Calm     95 % 0.00 in
01:21 72.3 °F 70.9 °F 30.00 in Calm     95 % 0.00 in
01:26 72.1 °F 70.9 °F 30.00 in Calm     96 % 0.00 in
01:31 72.1 °F 70.9 °F 29.99 in Calm     96 % 0.00 in
01:36 72.1 °F 70.9 °F 29.99 in Calm     96 % 0.00 in
01:41 72.0 °F 70.7 °F 29.99 in Calm     96 % 0.00 in
01:46 72.0 °F 70.7 °F 29.99 in Calm   1.0 mph 96 % 0.00 in
01:51 72.0 °F 70.7 °F 29.99 in Calm   1.0 mph 96 % 0.00 in
01:56 71.8 °F 70.5 °F 29.99 in Calm   1.0 mph 96 % 0.00 in
02:01 71.8 °F 70.5 °F 29.99 in Calm   1.0 mph 96 % 0.00 in
02:06 71.8 °F 70.9 °F 29.98 in Calm   1.0 mph 97 % 0.00 in
02:11 71.8 °F 70.9 °F 29.99 in Calm     97 % 0.00 in
02:16 71.8 °F 70.9 °F 29.99 in Calm   1.0 mph 97 % 0.00 in
02:21 71.8 °F 70.9 °F 29.98 in Calm   1.0 mph 97 % 0.00 in
02:26 71.8 °F 70.9 °F 29.98 in Calm   1.0 mph 97 % 0.00 in
02:31 71.8 °F 70.9 °F 29.98 in Calm     97 % 0.00 in
02:37 71.4 °F 70.5 °F 29.98 in Calm     97 % 0.00 in
02:42 71.4 °F 70.5 °F 29.98 in Calm   1.0 mph 97 % 0.00 in
02:43 71.4 °F 70.5 °F 29.98 in Calm   1.0 mph 97 % 0.00 in
02:48 71.2 °F 70.3 °F 29.98 in Calm   1.0 mph 97 % 0.00 in
02:53 71.1 °F 70.2 °F 29.98 in Calm   1.0 mph 97 % 0.00 in
02:58 70.9 °F 70.0 °F 29.98 in Calm     97 % 0.00 in
03:03 70.9 °F 70.0 °F 29.98 in Calm     97 % 0.00 in
03:08 71.1 °F 70.5 °F 29.98 in Calm   1.0 mph 98 % 0.00 in
03:13 71.1 °F 70.2 °F 29.98 in Calm   1.0 mph 97 % 0.00 in
03:18 71.1 °F 70.5 °F 29.98 in Calm   1.0 mph 98 % 0.00 in
03:23 71.1 °F 70.5 °F 29.98 in Calm   1.0 mph 98 % 0.00 in
03:28 71.1 °F 70.2 °F 29.98 in Calm   1.0 mph 97 % 0.00 in
03:33 70.9 °F 70.0 °F 29.98 in Calm     97 % 0.00 in
03:38 70.7 °F 69.8 °F 29.98 in Calm     97 % 0.00 in
03:43 70.3 °F 69.4 °F 29.98 in Calm     97 % 0.00 in
03:48 70.2 °F 69.3 °F 29.98 in Calm     97 % 0.00 in
03:53 70.0 °F 69.1 °F 29.98 in Calm     97 % 0.00 in
03:58 70.0 °F 69.4 °F 29.98 in Calm     98 % 0.00 in
04:03 69.8 °F 69.3 °F 29.98 in Calm     98 % 0.00 in
04:08 69.6 °F 69.1 °F 29.98 in Calm     98 % 0.00 in
04:13 69.6 °F 69.1 °F 29.98 in Calm     98 % 0.00 in
04:18 69.6 °F 69.1 °F 29.98 in Calm     98 % 0.00 in
04:23 69.6 °F 69.1 °F 29.98 in Calm     98 % 0.00 in
04:28 69.6 °F 69.1 °F 29.98 in Calm     98 % 0.00 in
04:33 69.6 °F 69.1 °F 29.98 in Calm     98 % 0.00 in
04:38 69.8 °F 69.3 °F 29.98 in Calm     98 % 0.00 in
04:43 69.6 °F 69.1 °F 29.98 in Calm     98 % 0.00 in
04:48 69.8 °F 69.3 °F 29.98 in Calm     98 % 0.00 in
04:53 69.6 °F 69.1 °F 29.98 in Calm     98 % 0.00 in
04:58 69.6 °F 69.3 °F 29.99 in Calm     99 % 0.00 in
05:03 69.6 °F 69.1 °F 29.98 in Calm     98 % 0.00 in
05:08 69.4 °F 68.9 °F 29.99 in Calm     98 % 0.00 in
05:13 69.3 °F 68.7 °F 29.99 in Calm     98 % 0.00 in
05:18 69.3 °F 68.7 °F 29.99 in Calm     98 % 0.00 in
05:23 69.3 °F 68.9 °F 29.99 in Calm     99 % 0.00 in
05:28 69.3 °F 68.9 °F 29.99 in Calm     99 % 0.00 in
05:33 69.3 °F 68.9 °F 29.99 in Calm     99 % 0.00 in
05:38 69.3 °F 68.9 °F 30.00 in Calm     99 % 0.00 in
05:43 69.3 °F 68.9 °F 30.00 in Calm     99 % 0.00 in
05:44 69.1 °F 68.7 °F 30.00 in Calm     99 % 0.00 in
05:49 68.9 °F 68.5 °F 30.00 in Calm     99 % 0.00 in
05:54 68.9 °F 68.5 °F 30.00 in Calm     99 % 0.00 in
05:59 68.9 °F 68.5 °F 30.00 in Calm     99 % 0.00 in
06:04 69.3 °F 68.9 °F 30.01 in Calm   1.0 mph 99 % 0.00 in
06:09 69.1 °F 68.7 °F 30.01 in Calm   1.0 mph 99 % 0.00 in
06:15 69.3 °F 68.9 °F 30.01 in Calm   1.0 mph 99 % 0.00 in
06:20 69.4 °F 69.1 °F 30.01 in Calm   1.0 mph 99 % 0.00 in
06:25 69.6 °F 69.3 °F 30.01 in Calm   1.0 mph 99 % 0.00 in
06:30 69.6 °F 69.3 °F 30.01 in Calm   1.0 mph 99 % 0.00 in
06:35 69.4 °F 69.1 °F 30.01 in Calm   1.0 mph 99 % 0.00 in
06:40 69.6 °F 69.3 °F 30.01 in Calm   1.0 mph 99 % 0.00 in
06:45 69.6 °F 69.3 °F 30.02 in Calm   1.0 mph 99 % 0.00 in
06:50 69.4 °F 69.1 °F 30.02 in Calm   1.0 mph 99 % 0.00 in
06:55 69.4 °F 69.1 °F 30.02 in Calm   1.0 mph 99 % 0.00 in
06:56 69.4 °F 69.1 °F 30.02 in Calm   1.0 mph 99 % 0.00 in
07:01 69.6 °F 69.3 °F 30.02 in Calm   1.0 mph 99 % 0.00 in
07:06 69.4 °F 69.1 °F 30.03 in Calm     99 % 0.00 in
07:11 69.8 °F 69.4 °F 30.03 in SE 1.0 mph 1.0 mph 99 % 0.00 in
07:16 70.0 °F 69.6 °F 30.04 in NW 2.0 mph 2.0 mph 99 % 0.00 in
07:21 70.2 °F 69.8 °F 30.04 in NW 1.0 mph 2.0 mph 99 % 0.00 in
07:26 70.3 °F 70.0 °F 30.04 in Calm   2.0 mph 99 % 0.00 in
07:31 70.3 °F 70.0 °F 30.04 in NNW 1.0 mph 2.0 mph 99 % 0.00 in
07:36 70.3 °F 70.0 °F 30.04 in Calm   2.0 mph 99 % 0.00 in
07:41 70.3 °F 70.0 °F 30.05 in Calm   1.0 mph 99 % 0.00 in
07:46 70.3 °F 70.0 °F 30.05 in Calm   1.0 mph 99 % 0.00 in
07:51 70.5 °F 70.2 °F 30.05 in Calm   2.0 mph 99 % 0.00 in
07:56 70.7 °F 70.3 °F 30.05 in Calm   2.0 mph 99 % 0.00 in
08:01 71.1 °F 70.7 °F 30.05 in NW 1.0 mph 2.0 mph 99 % 0.00 in
08:06 71.1 °F 70.7 °F 30.05 in Calm   2.0 mph 99 % 0.00 in
08:11 71.2 °F 70.9 °F 30.06 in Calm   2.0 mph 99 % 0.00 in
08:16 71.6 °F 71.2 °F 30.06 in NW 2.0 mph 2.0 mph 99 % 0.00 in
08:17 71.8 °F 71.4 °F 30.06 in NW 1.0 mph 2.0 mph 99 % 0.00 in
08:22 72.1 °F 71.8 °F 30.06 in NNW 2.0 mph 4.0 mph 99 % 0.00 in
08:27 72.5 °F 72.1 °F 30.07 in NNW 3.0 mph 4.0 mph 99 % 0.00 in
08:32 73.0 °F 72.7 °F 30.08 in NW 2.0 mph 6.0 mph 99 % 0.00 in
08:37 73.4 °F 72.9 °F 30.09 in NW 3.0 mph 6.0 mph 98 % 0.00 in
08:42 73.8 °F 73.2 °F 30.09 in North 2.0 mph 6.0 mph 98 % 0.00 in
08:47 73.9 °F 73.0 °F 30.09 in NW 2.0 mph 6.0 mph 97 % 0.00 in
08:52 74.1 °F 73.2 °F 30.09 in NW 2.0 mph 6.0 mph 97 % 0.00 in
08:57 74.3 °F 73.4 °F 30.09 in NNW 1.0 mph 6.0 mph 97 % 0.00 in
09:02 74.8 °F 73.6 °F 30.09 in Calm   6.0 mph 96 % 0.00 in
09:07 75.4 °F 73.8 °F 30.08 in North 2.0 mph 4.0 mph 95 % 0.00 in
09:12 75.9 °F 74.3 °F 30.08 in NW 1.0 mph 4.0 mph 95 % 0.00 in
09:17 76.5 °F 74.3 °F 30.09 in NW 1.0 mph 3.0 mph 93 % 0.00 in
09:22 76.8 °F 74.3 °F 30.09 in West 2.0 mph 3.0 mph 92 % 0.00 in
09:27 77.4 °F 74.5 °F 30.09 in NW 2.0 mph 4.0 mph 91 % 0.00 in
09:32 77.9 °F 74.7 °F 30.09 in WNW 4.0 mph 4.0 mph 90 % 0.00 in
09:37 78.3 °F 75.4 °F 30.09 in Calm   5.0 mph 91 % 0.00 in
09:42 79.2 °F 75.4 °F 30.09 in NW 2.0 mph 5.0 mph 88 % 0.00 in
09:47 79.7 °F 75.2 °F 30.09 in NW 2.0 mph 5.0 mph 86 % 0.00 in
09:52 80.1 °F 75.6 °F 30.10 in NW 2.0 mph 4.0 mph 86 % 0.00 in
09:57 80.4 °F 75.6 °F 30.09 in Calm   6.0 mph 85 % 0.00 in
10:02 81.9 °F 76.1 °F 30.09 in Calm   6.0 mph 83 % 0.00 in
10:07 81.9 °F 75.4 °F 30.10 in NW 3.0 mph 6.0 mph 81 % 0.00 in
10:12 81.7 °F 75.2 °F 30.10 in NW 4.0 mph 6.0 mph 81 % 0.00 in
10:17 81.7 °F 75.2 °F 30.09 in North 1.0 mph 6.0 mph 81 % 0.00 in
10:22 81.9 °F 75.0 °F 30.10 in NNW 2.0 mph 6.0 mph 80 % 0.00 in
10:27 82.0 °F 74.8 °F 30.10 in NNW 4.0 mph 6.0 mph 79 % 0.00 in
10:32 82.6 °F 75.4 °F 30.10 in NW 1.0 mph 6.0 mph 79 % 0.00 in
10:37 82.8 °F 75.2 °F 30.11 in NW 5.0 mph 6.0 mph 78 % 0.00 in
10:42 82.9 °F 75.0 °F 30.11 in WNW 6.0 mph 8.0 mph 77 % 0.00 in
10:47 82.9 °F 74.7 °F 30.10 in NW 3.0 mph 8.0 mph 76 % 0.00 in
10:52 83.1 °F 74.8 °F 30.10 in WNW 1.0 mph 8.0 mph 76 % 0.00 in
10:57 83.5 °F 75.0 °F 30.10 in NW 2.0 mph 8.0 mph 76 % 0.00 in
11:02 83.7 °F 74.8 °F 30.10 in NNW 3.0 mph 9.0 mph 75 % 0.00 in
11:07 84.2 °F 75.0 °F 30.10 in WNW 5.0 mph 9.0 mph 74 % 0.00 in
11:12 84.6 °F 74.5 °F 30.10 in WNW 3.0 mph 9.0 mph 72 % 0.00 in
11:17 84.7 °F 74.7 °F 30.10 in NW 3.0 mph 8.0 mph 72 % 0.00 in
11:22 84.7 °F 74.3 °F 30.10 in Calm   8.0 mph 71 % 0.00 in
11:27 85.3 °F 74.3 °F 30.10 in NW 5.0 mph 8.0 mph 70 % 0.00 in
11:33 85.1 °F 73.4 °F 30.10 in WSW 1.0 mph 8.0 mph 68 % 0.00 in
11:38 84.9 °F 74.1 °F 30.10 in North 5.0 mph 8.0 mph 70 % 0.00 in
11:43 85.3 °F 73.9 °F 30.10 in Calm   8.0 mph 69 % 0.00 in
11:48 85.8 °F 73.9 °F 30.10 in WNW 3.0 mph 7.0 mph 68 % 0.00 in
11:53 86.4 °F 75.0 °F 30.10 in NNE 2.0 mph 7.0 mph 69 % 0.00 in
11:58 86.2 °F 75.2 °F 30.09 in WSW 1.0 mph 7.0 mph 70 % 0.00 in
12:03 86.4 °F 75.4 °F 30.10 in WNW 1.0 mph 7.0 mph 70 % 0.00 in
12:08 85.8 °F 74.5 °F 30.09 in WSW 1.0 mph 7.0 mph 69 % 0.00 in
12:13 85.5 °F 74.5 °F 30.10 in NNW 4.0 mph 7.0 mph 70 % 0.00 in
12:18 85.5 °F 74.5 °F 30.09 in WNW 2.0 mph 7.0 mph 70 % 0.00 in
12:23 85.8 °F 73.9 °F 30.09 in NW 1.0 mph 6.0 mph 68 % 0.00 in
12:28 86.2 °F 73.9 °F 30.09 in NW 7.0 mph 7.0 mph 67 % 0.00 in
12:33 86.4 °F 74.5 °F 30.09 in NW 3.0 mph 7.0 mph 68 % 0.00 in
12:38 86.2 °F 73.9 °F 30.08 in WNW 5.0 mph 8.0 mph 67 % 0.00 in
12:43 86.5 °F 73.8 °F 30.08 in NW 3.0 mph 8.0 mph 66 % 0.00 in
12:48 86.9 °F 74.1 °F 30.08 in NW 3.0 mph 8.0 mph 66 % 0.00 in
12:53 86.9 °F 73.2 °F 30.08 in NNW 6.0 mph 8.0 mph 64 % 0.00 in
12:58 87.3 °F 74.1 °F 30.07 in NE 3.0 mph 8.0 mph 65 % 0.00 in
13:03 87.8 °F 73.6 °F 30.07 in NNW 4.0 mph 10.0 mph 63 % 0.00 in
13:08 88.0 °F 73.4 °F 30.07 in NW 4.0 mph 10.0 mph 62 % 0.00 in
13:13 87.8 °F 72.7 °F 30.06 in WNW 5.0 mph 10.0 mph 61 % 0.00 in
13:19 88.0 °F 72.3 °F 30.06 in NW 2.0 mph 10.0 mph 60 % 0.00 in
13:24 88.3 °F 72.1 °F 30.06 in WSW 3.0 mph 10.0 mph 59 % 0.00 in
13:29 88.3 °F 71.6 °F 30.06 in NW 1.0 mph 11.0 mph 58 % 0.00 in
13:34 88.3 °F 72.1 °F 30.06 in NNE 8.0 mph 11.0 mph 59 % 0.00 in
13:39 88.2 °F 72.5 °F 30.05 in WSW 1.0 mph 13.0 mph 60 % 0.00 in
13:44 88.9 °F 72.1 °F 30.05 in WNW 4.0 mph 13.0 mph 58 % 0.00 in
13:49 89.4 °F 72.1 °F 30.04 in NNW 5.0 mph 13.0 mph 57 % 0.00 in
13:54 89.2 °F 72.0 °F 30.04 in NW 5.0 mph 9.0 mph 57 % 0.00 in
13:59 88.9 °F 73.2 °F 30.04 in NNW 2.0 mph 9.0 mph 60 % 0.00 in
14:04 88.5 °F 72.3 °F 30.04 in West 7.0 mph 9.0 mph 59 % 0.00 in
14:09 88.5 °F 72.9 °F 30.03 in SSE 2.0 mph 9.0 mph 60 % 0.00 in
14:14 89.1 °F 73.9 °F 30.03 in NW 5.0 mph 9.0 mph 61 % 0.00 in
14:19 89.1 °F 73.9 °F 30.03 in NE 5.0 mph 9.0 mph 61 % 0.00 in
14:24 89.4 °F 74.1 °F 30.03 in NNW 3.0 mph 9.0 mph 61 % 0.00 in
14:29 89.2 °F 73.9 °F 30.03 in NNW 3.0 mph 8.0 mph 61 % 0.00 in
14:34 88.9 °F 75.2 °F 30.02 in WNW 6.0 mph 11.0 mph 64 % 0.00 in
14:39 88.5 °F 75.7 °F 30.03 in NW 4.0 mph 11.0 mph 66 % 0.00 in
14:44 88.2 °F 75.7 °F 30.03 in NNW 6.0 mph 11.0 mph 67 % 0.00 in
14:49 87.4 °F 75.2 °F 30.03 in WNW 4.0 mph 12.0 mph 67 % 0.00 in
14:54 86.7 °F 76.1 °F 30.03 in NW 5.0 mph 15.0 mph 71 % 0.00 in
14:59 86.2 °F 75.7 °F 30.03 in WNW 8.0 mph 15.0 mph 71 % 0.00 in
15:04 86.0 °F 75.9 °F 30.03 in NW 6.0 mph 15.0 mph 72 % 0.00 in
15:09 85.3 °F 75.2 °F 30.03 in NW 10.0 mph 15.0 mph 72 % 0.00 in
15:14 84.2 °F 74.7 °F 30.03 in NW 8.0 mph 16.0 mph 73 % 0.00 in
15:19 84.0 °F 74.5 °F 30.04 in NNW 5.0 mph 18.0 mph 73 % 0.00 in
15:24 83.7 °F 74.1 °F 30.04 in NNW 7.0 mph 18.0 mph 73 % 0.00 in
15:29 82.9 °F 73.4 °F 30.04 in WNW 7.0 mph 18.0 mph 73 % 0.00 in
15:34 82.0 °F 72.9 °F 30.04 in WNW 10.0 mph 14.0 mph 74 % 0.00 in
15:39 81.5 °F 72.9 °F 30.04 in NW 5.0 mph 19.0 mph 75 % 0.00 in
15:44 81.1 °F 72.9 °F 30.04 in NNW 7.0 mph 19.0 mph 76 % 0.00 in
15:49 80.8 °F 72.1 °F 30.05 in NW 12.0 mph 19.0 mph 75 % 0.00 in
15:54 80.1 °F 71.8 °F 30.05 in NW 11.0 mph 15.0 mph 76 % 0.00 in
16:00 79.5 °F 71.2 °F 30.05 in WNW 11.0 mph 15.0 mph 76 % 0.00 in
16:05 79.3 °F 71.4 °F 30.05 in NW 8.0 mph 16.0 mph 77 % 0.00 in
16:10 79.5 °F 71.6 °F 30.05 in WNW 4.0 mph 16.0 mph 77 % 0.00 in
16:15 79.5 °F 71.2 °F 30.05 in North 7.0 mph 16.0 mph 76 % 0.00 in
16:20 79.5 °F 70.9 °F 30.06 in NW 5.0 mph 14.0 mph 75 % 0.00 in
16:25 79.0 °F 70.7 °F 30.06 in NW 12.0 mph 16.0 mph 76 % 0.00 in
16:30 78.6 °F 70.3 °F 30.05 in NW 5.0 mph 16.0 mph 76 % 0.00 in
16:35 78.8 °F 70.5 °F 30.06 in NW 6.0 mph 16.0 mph 76 % 0.00 in
16:40 78.4 °F 70.2 °F 30.06 in North 12.0 mph 14.0 mph 76 % 0.00 in
16:45 78.1 °F 70.3 °F 30.06 in NW 11.0 mph 15.0 mph 77 % 0.00 in
16:50 78.1 °F 70.3 °F 30.06 in NNW 5.0 mph 15.0 mph 77 % 0.00 in
16:55 78.1 °F 70.0 °F 30.06 in West 6.0 mph 15.0 mph 76 % 0.00 in
17:00 77.9 °F 70.2 °F 30.06 in NW 5.0 mph 17.0 mph 77 % 0.00 in
17:05 77.5 °F 69.8 °F 30.06 in WNW 8.0 mph 17.0 mph 77 % 0.00 in
17:10 76.8 °F 69.4 °F 30.06 in NW 10.0 mph 19.0 mph 78 % 0.00 in
17:15 76.5 °F 69.1 °F 30.07 in NW 9.0 mph 19.0 mph 78 % 0.00 in
17:20 76.1 °F 68.7 °F 30.07 in NW 9.0 mph 19.0 mph 78 % 0.00 in
17:25 75.7 °F 68.4 °F 30.08 in NW 8.0 mph 16.0 mph 78 % 0.00 in
17:30 75.7 °F 68.4 °F 30.08 in North 9.0 mph 16.0 mph 78 % 0.00 in
17:35 75.7 °F 67.6 °F 30.08 in NW 7.0 mph 13.0 mph 76 % 0.00 in
17:40 75.9 °F 67.5 °F 30.08 in West 7.0 mph 14.0 mph 75 % 0.00 in
17:45 75.7 °F 67.3 °F 30.09 in NW 8.0 mph 14.0 mph 75 % 0.00 in
17:50 75.7 °F 66.9 °F 30.09 in NW 17.0 mph 17.0 mph 74 % 0.00 in
17:55 75.6 °F 67.1 °F 30.09 in NW 9.0 mph 17.0 mph 75 % 0.00 in
18:00 75.6 °F 67.1 °F 30.09 in NW 4.0 mph 17.0 mph 75 % 0.00 in
18:05 75.6 °F 67.1 °F 30.10 in NW 4.0 mph 17.0 mph 75 % 0.00 in
18:10 75.4 °F 66.9 °F 30.10 in NW 6.0 mph 16.0 mph 75 % 0.00 in
18:15 75.4 °F 66.9 °F 30.10 in NW 7.0 mph 16.0 mph 75 % 0.00 in
18:20 75.0 °F 66.6 °F 30.10 in NW 6.0 mph 16.0 mph 75 % 0.00 in
18:25 74.8 °F 66.4 °F 30.10 in WNW 5.0 mph 13.0 mph 75 % 0.00 in
18:30 74.5 °F 66.0 °F 30.10 in NNW 6.0 mph 15.0 mph 75 % 0.00 in
18:35 74.1 °F 65.7 °F 30.11 in WNW 8.0 mph 15.0 mph 75 % 0.00 in
18:40 73.9 °F 65.5 °F 30.11 in West 4.0 mph 15.0 mph 75 % 0.00 in
18:45 73.8 °F 65.7 °F 30.12 in NW 7.0 mph 15.0 mph 76 % 0.00 in
18:50 73.6 °F 65.5 °F 30.11 in WSW 5.0 mph 15.0 mph 76 % 0.00 in
18:55 73.6 °F 65.5 °F 30.12 in NNW 4.0 mph 15.0 mph 76 % 0.00 in
19:00 73.4 °F 65.3 °F 30.12 in NNW 9.0 mph 13.0 mph 76 % 0.00 in
19:05 73.2 °F 65.1 °F 30.12 in NNW 2.0 mph 13.0 mph 76 % 0.00 in
19:10 73.2 °F 65.1 °F 30.12 in NW 4.0 mph 11.0 mph 76 % 0.00 in
19:15 73.0 °F 64.6 °F 30.12 in NW 4.0 mph 13.0 mph 75 % 0.00 in
19:21 73.0 °F 64.6 °F 30.12 in NNW 9.0 mph 15.0 mph 75 % 0.00 in
19:26 73.0 °F 64.2 °F 30.12 in NW 6.0 mph 15.0 mph 74 % 0.00 in
19:31 73.0 °F 63.9 °F 30.12 in WNW 6.0 mph 15.0 mph 73 % 0.00 in
19:36 73.0 °F 63.9 °F 30.13 in NW 4.0 mph 10.0 mph 73 % 0.00 in
19:41 73.0 °F 63.9 °F 30.13 in NW 7.0 mph 10.0 mph 73 % 0.00 in
19:46 72.9 °F 63.7 °F 30.13 in NNW 4.0 mph 10.0 mph 73 % 0.00 in
19:51 73.0 °F 64.2 °F 30.14 in NW 2.0 mph 10.0 mph 74 % 0.00 in
19:56 72.9 °F 63.7 °F 30.14 in NW 3.0 mph 10.0 mph 73 % 0.00 in
19:59 72.9 °F 63.7 °F 30.14 in North 4.0 mph 10.0 mph 73 % 0.00 in
20:04 72.9 °F 63.7 °F 30.14 in NW 6.0 mph 11.0 mph 73 % 0.00 in
20:05 72.9 °F 64.0 °F 30.14 in NW 3.0 mph 11.0 mph 74 % 0.00 in
20:10 72.9 °F 64.0 °F 30.14 in NW 4.0 mph 11.0 mph 74 % 0.00 in
20:15 72.9 °F 63.7 °F 30.14 in NW 6.0 mph 7.0 mph 73 % 0.00 in
20:20 72.9 °F 63.7 °F 30.14 in NW 2.0 mph 7.0 mph 73 % 0.00 in
20:25 73.0 °F 63.9 °F 30.15 in NNW 5.0 mph 7.0 mph 73 % 0.00 in
20:30 73.0 °F 63.9 °F 30.15 in NW 1.0 mph 8.0 mph 73 % 0.00 in
20:35 73.0 °F 63.9 °F 30.15 in NW 2.0 mph 8.0 mph 73 % 0.00 in
20:40 73.0 °F 63.9 °F 30.16 in NW 2.0 mph 8.0 mph 73 % 0.00 in
20:45 73.0 °F 63.9 °F 30.16 in NNW 3.0 mph 7.0 mph 73 % 0.00 in
20:50 73.0 °F 63.9 °F 30.16 in NW 3.0 mph 7.0 mph 73 % 0.00 in
20:55 73.0 °F 63.9 °F 30.16 in NW 3.0 mph 7.0 mph 73 % 0.00 in
21:00 73.2 °F 63.7 °F 30.16 in NW 4.0 mph 8.0 mph 72 % 0.00 in
21:05 73.2 °F 63.7 °F 30.16 in WNW 5.0 mph 8.0 mph 72 % 0.00 in
21:10 73.2 °F 63.7 °F 30.16 in NNE 4.0 mph 8.0 mph 72 % 0.00 in
21:15 73.2 °F 63.3 °F 30.16 in NW 3.0 mph 8.0 mph 71 % 0.00 in
21:20 73.2 °F 63.3 °F 30.17 in NW 3.0 mph 8.0 mph 71 % 0.00 in
21:25 73.2 °F 63.3 °F 30.17 in WNW 3.0 mph 7.0 mph 71 % 0.00 in
21:30 73.2 °F 62.8 °F 30.17 in NW 5.0 mph 9.0 mph 70 % 0.00 in
21:35 73.2 °F 62.4 °F 30.17 in NW 5.0 mph 9.0 mph 69 % 0.00 in
21:40 73.4 °F 62.6 °F 30.17 in WNW 2.0 mph 9.0 mph 69 % 0.00 in
21:45 73.2 °F 62.4 °F 30.17 in NW 2.0 mph 9.0 mph 69 % 0.00 in
21:46 73.2 °F 62.4 °F 30.17 in NNW 8.0 mph 9.0 mph 69 % 0.00 in
21:51 73.2 °F 62.4 °F 30.17 in NW 5.0 mph 9.0 mph 69 % 0.00 in
21:56 73.2 °F 62.4 °F 30.18 in NW 7.0 mph 10.0 mph 69 % 0.00 in
22:01 73.0 °F 62.2 °F 30.17 in NNW 6.0 mph 10.0 mph 69 % 0.00 in
22:06 73.0 °F 61.5 °F 30.17 in NNW 4.0 mph 15.0 mph 67 % 0.00 in
22:11 73.0 °F 60.6 °F 30.17 in NW 6.0 mph 15.0 mph 65 % 0.00 in
22:16 72.9 °F 59.0 °F 30.18 in WNW 3.0 mph 15.0 mph 62 % 0.00 in
22:21 72.9 °F 58.6 °F 30.19 in NW 6.0 mph 10.0 mph 61 % 0.00 in
22:26 72.9 °F 58.1 °F 30.19 in North 4.0 mph 9.0 mph 60 % 0.00 in
22:31 72.9 °F 58.1 °F 30.18 in NW 4.0 mph 10.0 mph 60 % 0.00 in
22:36 72.9 °F 57.2 °F 30.18 in NNW 3.0 mph 14.0 mph 58 % 0.00 in
22:41 72.9 °F 56.7 °F 30.18 in NW 3.0 mph 14.0 mph 57 % 0.00 in
22:46 72.9 °F 56.3 °F 30.18 in NW 3.0 mph 14.0 mph 56 % 0.00 in
22:51 72.7 °F 55.6 °F 30.19 in WNW 4.0 mph 12.0 mph 55 % 0.00 in
22:56 72.7 °F 55.6 °F 30.19 in NW 6.0 mph 12.0 mph 55 % 0.00 in
23:01 72.7 °F 55.6 °F 30.18 in NW 4.0 mph 14.0 mph 55 % 0.00 in
23:06 72.3 °F 54.7 °F 30.19 in WNW 7.0 mph 14.0 mph 54 % 0.00 in
23:11 72.3 °F 54.7 °F 30.19 in NW 2.0 mph 14.0 mph 54 % 0.00 in
23:17 72.1 °F 54.5 °F 30.19 in WNW 4.0 mph 12.0 mph 54 % 0.00 in
23:21 72.0 °F 54.9 °F 30.19 in NW 7.0 mph 12.0 mph 55 % 0.00 in
23:26 71.8 °F 54.3 °F 30.19 in NW 3.0 mph 12.0 mph 54 % 0.00 in
23:31 71.8 °F 54.3 °F 30.19 in East 6.0 mph 12.0 mph 54 % 0.00 in
23:37 71.6 °F 54.1 °F 30.19 in NNW 4.0 mph 12.0 mph 54 % 0.00 in
23:42 71.6 °F 53.6 °F 30.19 in NNW 7.0 mph 12.0 mph 53 % 0.00 in
23:43 71.4 °F 54.0 °F 30.19 in West 10.0 mph 12.0 mph 54 % 0.00 in
23:48 71.4 °F 53.4 °F 30.19 in WNW 6.0 mph 12.0 mph 53 % 0.00 in
23:53 71.2 °F 53.2 °F 30.19 in NW 8.0 mph 12.0 mph 53 % 0.00 in
23:58 71.1 °F 53.1 °F 30.19 in WSW 3.0 mph 13.0 mph 53 % 0.00 in
Spring, Texas: Villages of Bridgestone
Compliments of Weather Underground - 3 mb

Script developed by  Jim McMurry - jmcmurry@mwt.net Adapted for the template by  Wim van der Kuil - Leuven-Template.eu

You find our weather info also at:

UK Metoffice

WeatherCloud

Weather Underground

Mid-South Weather Network

AWEKAS

Citizen Weather Observer Program (CWOP)

HAMweather, WeatherForYou, PWS Weather

Equipment we use:

Weather-station
Davis Vantage Vue

Weather-program
Meteohub

Weather-server
Debian 7.9 x86 (Guest)

Provider
DreamHost

Davis Vantage Vue

Meteohub

Debian 7.9 x86 (Guest)

DreamHost